• Join FlightAware (Why Join?)
  • Login
  • US Flag 
01:52AM EDT


 

Airport Tracker/Info


-or-


 

Live Flight TrackerFlight Track Log ✈ CTL22 ✈ 28-Jun-2013 ✈ KAZO - KBKL

Flight Track Log - Related Links

Times and Time Zones

All times are in EDT time to prevent confusion due to time zone crossing. See the CTL22 flight status page for this flight to view local times or setup timezone preferences in your user account.

Time Position Orientation Groundspeed Altitude Reporting Facility
EDT Latitude Longitude Course Direction KTS MPH feet Rate Location/Type
08:19PM 42.1972 -85.3917 115° Southeast 152 175 4,300  Level Chicago Center
08:20PM 42.1753 -85.3403 120° Southeast 156 180 5,100 600 Climbing Chicago Center
08:21PM 42.1536 -85.2867 119° Southeast 161 185 5,600 480 Climbing Chicago Center
08:22PM 42.1696 -85.1668 103° East  Level Estimated
08:22PM 42.1347 -85.2306 114° Southeast 163 188 6,100  Level Chicago Center
08:23PM 42.1586 -85.1027 103° East  Level Estimated
08:23PM 42.1169 -85.1733 113° Southeast 165 190 6,500  Level Chicago Center
08:24PM 42.0933 -85.1031 114° Southeast 170 196 6,700 120 Climbing Chicago Center
08:25PM 42.0719 -85.0397 114° Southeast 181 208 6,800 180 Climbing Chicago Center
08:26PM 42.0478 -84.9817 119° Southeast 179 206 7,100 180 Climbing Chicago Center
08:27PM 42.0222 -84.9244 121° Southeast 178 205 7,200 -60 Climbing Chicago Center
08:28PM 41.9933 -84.8647 123° Southeast 185 213 7,000 -60 Descending Chicago Center
08:29PM 41.9633 -84.8058 124° Southeast 189 217 7,100  Climbing Chicago Center
08:30PM 41.9397 -84.7444 117° Southeast 186 214 7,100  Level Chicago Center
08:31PM 41.9050 -84.6728 123° Southeast 189 217 7,200  Climbing Chicago Center
08:32PM 41.8686 -84.6211 133° Southeast 189 217 7,200 -120 Level Chicago Center
08:33PM 41.8372 -84.5628 126° Southeast 191 220 7,000 -60 Descending Chicago Center
08:34PM 41.8158 -84.4972 114° Southeast 192 221 7,100 60 Climbing Chicago Center
08:35PM 41.8025 -84.4283 105° East 193 222 7,200  Climbing Chicago Center
08:36PM 41.7856 -84.3608 109° East 192 221 7,100 -60 Descending Chicago Center
08:37PM 41.7519 -84.2878 122° Southeast 191 220 7,100  Level Chicago Center
08:38PM 41.7453 -84.2169 97° East 192 221 7,100  Level Chicago Center
08:39PM 41.7381 -84.1486 98° East 189 217 7,200  Climbing Chicago Center
08:40PM 41.7275 -84.0792 101° East 189 217 7,200  Level Chicago Center